Time;durP1;ratioP1;P1;durP2;ratioP2;P2;SDS_P1;SDS_P2;PMS_P1;PMS_P2;Temp;Humidity;BMP_temperature;BMP_pressure;BME280_temperature;BME280_humidity;BME280_pressure;Samples;Min_cycle;Max_cycle;Signal;HPM_P1;HPM_P2
2022/08/09 00:01:38;;;;;;;;;;;;;;;20.82;63.67;95336.13;5095447;28;1029;-48
2022/08/09 00:04:04;;;;;;;;;;;;;;;20.82;62.36;95328.78;5095062;28;1067;-48
2022/08/09 00:06:30;;;;;;;;;;;;;;;20.96;62.50;95321.38;5095294;28;1849;-48
2022/08/09 00:08:56;;;;;;;;;;;;;;;20.90;63.38;95324.13;5095026;28;1223;-48
2022/08/09 00:11:23;;;;;;;;;;;;;;;20.97;63.39;95323.03;5095146;28;1040;-48
2022/08/09 00:13:49;;;;;;;;;;;;;;;21.08;62.93;95323.34;5095121;28;1020;-48
2022/08/09 00:16:16;;;;;;;;;;;;;;;20.76;65.70;95326.97;5094956;28;1902;-48
2022/08/09 00:18:42;;;;;;;;;;;;;;;20.60;63.74;95322.91;5094968;28;1019;-48
2022/08/09 00:21:08;;;;;;;;;;;;;;;20.84;63.60;95325.84;5095012;28;992;-48
2022/08/09 00:23:35;;;;;;;;;;;;;;;20.74;64.12;95322.81;5094967;28;1063;-48
2022/08/09 00:26:01;;;;;;;;;;;;;;;20.83;63.49;95322.31;5094862;28;1049;-48
2022/08/09 00:28:27;;;;;;;;;;;;;;;20.77;63.01;95322.34;5094907;28;969;-48
2022/08/09 00:30:54;;;;;;;;;;;;;;;20.86;62.57;95315.59;5094732;28;1060;-48
2022/08/09 00:33:20;;;;;;;;;;;;;;;20.75;63.88;95324.47;5094652;28;1050;-48
2022/08/09 00:35:46;;;;;;;;;;;;;;;20.69;64.50;95322.63;5094712;28;1983;-48
2022/08/09 00:38:12;;;;;;;;;;;;;;;20.50;64.77;95317.06;5094775;28;1038;-48
2022/08/09 00:40:38;;;;;;;;;;;;;;;20.45;64.78;95319.59;5076855;28;941;-48
2022/08/09 00:43:04;;;;;;;;;;;;;;;20.54;64.53;95317.47;5092575;28;1225;-48
2022/08/09 00:45:31;;;;;;;;;;;;;;;20.65;65.05;95316.81;5074176;28;1056;-48
2022/08/09 00:47:57;;;;;;;;;;;;;;;20.66;65.19;95310.31;5074112;28;1005;-48
2022/08/09 00:50:23;;;;;;;;;;;;;;;20.81;64.61;95318.13;5073912;28;1080;-48
2022/08/09 00:52:49;;;;;;;;;;;;;;;20.78;64.91;95315.88;5074288;28;1017;-48
2022/08/09 00:55:15;;;;;;;;;;;;;;;20.76;65.59;95318.81;5073759;28;1910;-48
2022/08/09 00:57:41;;;;;;;;;;;;;;;20.70;67.33;95322.41;5074151;28;1024;-48
2022/08/09 01:00:08;;;;;;;;;;;;;;;20.47;66.56;95323.78;5073720;28;1061;-49
2022/08/09 01:02:37;;;;;;;;;;;;;;;20.50;65.37;95329.81;5073961;28;1000;-48
2022/08/09 01:05:09;;;;;;;;;;;;;;;20.45;66.49;95322.31;5073883;28;1041;-48
2022/08/09 01:07:58;;;;;;;;;;;;;;;20.14;67.60;95328.56;5073365;28;1250;-49
2022/08/09 01:10:34;;;;;;;;;;;;;;;20.13;68.56;95332.31;5027186;28;1273;-48
2022/08/09 01:13:07;;;;;;;;;;;;;;;20.20;68.01;95333.13;5073803;28;1004;-48
2022/08/09 01:15:36;;;;;;;;;;;;;;;20.25;67.48;95331.41;5073725;28;1979;-48
2022/08/09 01:18:09;;;;;;;;;;;;;;;20.20;68.28;95333.13;5073878;28;1043;-48
2022/08/09 01:20:41;;;;;;;;;;;;;;;20.14;68.73;95334.81;5073561;28;1049;-48
2022/08/09 01:23:13;;;;;;;;;;;;;;;20.05;68.91;95330.69;5073500;28;1025;-48
2022/08/09 01:25:45;;;;;;;;;;;;;;;20.01;69.30;95324.84;5073719;28;1022;-48
2022/08/09 01:28:12;;;;;;;;;;;;;;;19.90;70.56;95328.28;5073488;28;1902;-48
2022/08/09 01:30:39;;;;;;;;;;;;;;;19.75;71.11;95317.69;5073506;28;1048;-48
2022/08/09 01:33:07;;;;;;;;;;;;;;;19.70;70.14;95326.41;5073519;28;1189;-48
2022/08/09 01:35:33;;;;;;;;;;;;;;;19.53;70.55;95317.06;5073265;28;1906;-48
2022/08/09 01:38:01;;;;;;;;;;;;;;;19.51;69.12;95328.13;5073419;28;1021;-48
2022/08/09 01:40:28;;;;;;;;;;;;;;;19.75;68.82;95330.38;5073259;28;1092;-48
2022/08/09 01:42:55;;;;;;;;;;;;;;;19.77;68.93;95323.72;5073787;28;1217;-48
2022/08/09 01:45:22;;;;;;;;;;;;;;;19.82;68.39;95325.78;5093614;28;1016;-48
2022/08/09 01:47:49;;;;;;;;;;;;;;;19.65;70.18;95325.38;5093367;28;1025;-48
2022/08/09 01:50:16;;;;;;;;;;;;;;;19.46;71.60;95335.25;5093478;28;1028;-48
2022/08/09 01:52:42;;;;;;;;;;;;;;;19.49;70.07;95324.81;5093267;28;1061;-48
2022/08/09 01:55:09;;;;;;;;;;;;;;;19.55;71.00;95335.84;5093318;28;1902;-48
2022/08/09 01:57:42;;;;;;;;;;;;;;;19.42;71.30;95336.72;5093257;28;1048;-48
2022/08/09 02:00:09;;;;;;;;;;;;;;;19.52;69.78;95337.13;5093459;28;1044;-48
2022/08/09 02:02:37;;;;;;;;;;;;;;;19.28;71.62;95335.91;5093335;28;1052;-48
2022/08/09 02:05:05;;;;;;;;;;;;;;;19.28;70.29;95334.03;5093274;28;1076;-48
2022/08/09 02:07:33;;;;;;;;;;;;;;;19.03;71.51;95339.28;5093398;28;1028;-48
2022/08/09 02:10:01;;;;;;;;;;;;;;;19.10;70.54;95337.41;5093598;28;1051;-48
2022/08/09 02:12:27;;;;;;;;;;;;;;;19.14;70.70;95340.50;5093367;28;937;-49
2022/08/09 02:14:55;;;;;;;;;;;;;;;18.98;71.12;95341.75;5093360;28;1972;-48
2022/08/09 02:17:26;;;;;;;;;;;;;;;18.99;70.29;95342.59;5094045;28;1040;-49
2022/08/09 02:19:52;;;;;;;;;;;;;;;19.17;69.19;95341.97;5097370;28;1079;-48
2022/08/09 02:22:21;;;;;;;;;;;;;;;19.23;68.93;95339.22;5097041;28;1020;-49
2022/08/09 02:24:49;;;;;;;;;;;;;;;19.10;69.98;95339.25;5097260;28;1207;-48
2022/08/09 02:27:17;;;;;;;;;;;;;;;18.98;70.60;95335.53;5097118;28;973;-48
2022/08/09 02:29:45;;;;;;;;;;;;;;;18.65;70.95;95339.03;5097274;28;1009;-48
2022/08/09 02:32:15;;;;;;;;;;;;;;;18.60;71.25;95345.03;5097384;28;1072;-48
2022/08/09 02:34:42;;;;;;;;;;;;;;;18.64;71.88;95348.19;5097288;28;1913;-48
2022/08/09 02:37:13;;;;;;;;;;;;;;;18.76;71.61;95351.09;5096826;28;1016;-48
2022/08/09 02:39:42;;;;;;;;;;;;;;;18.74;71.34;95359.41;5097061;28;1088;-48
2022/08/09 02:42:20;;;;;;;;;;;;;;;18.58;72.24;95366.09;5096792;28;1052;-48
2022/08/09 02:44:47;;;;;;;;;;;;;;;18.41;73.01;95357.50;5079572;28;1225;-48
2022/08/09 02:47:15;;;;;;;;;;;;;;;18.53;72.51;95355.88;5076304;28;1071;-48
2022/08/09 02:49:44;;;;;;;;;;;;;;;18.20;73.78;95358.50;5076547;28;1032;-48
2022/08/09 02:52:12;;;;;;;;;;;;;;;18.25;72.39;95345.19;5076186;28;1021;-48
2022/08/09 02:54:38;;;;;;;;;;;;;;;18.37;72.06;95355.44;5076469;28;1910;-48
2022/08/09 02:57:07;;;;;;;;;;;;;;;18.12;72.90;95348.69;5076225;28;1016;-48
2022/08/09 02:59:35;;;;;;;;;;;;;;;18.23;73.09;95346.41;5076286;28;1029;-48
2022/08/09 03:02:02;;;;;;;;;;;;;;;18.23;72.83;95352.69;5076132;28;1107;-48
2022/08/09 03:04:30;;;;;;;;;;;;;;;18.33;72.63;95352.28;5076441;28;966;-48
2022/08/09 03:06:58;;;;;;;;;;;;;;;18.37;72.49;95356.25;5076232;28;1025;-48
2022/08/09 03:09:24;;;;;;;;;;;;;;;18.25;72.03;95358.72;5076006;28;1223;-48
2022/08/09 03:11:51;;;;;;;;;;;;;;;18.43;72.16;95358.13;5075989;28;1053;-48
2022/08/09 03:14:18;;;;;;;;;;;;;;;18.60;71.99;95360.47;5075849;28;1996;-48
2022/08/09 03:16:45;;;;;;;;;;;;;;;18.62;71.97;95356.50;5076075;28;1025;-49
2022/08/09 03:19:12;;;;;;;;;;;;;;;18.69;71.93;95351.09;5075915;28;1123;-48
2022/08/09 03:21:38;;;;;;;;;;;;;;;18.78;71.58;95340.88;5075944;28;953;-49
2022/08/09 03:24:04;;;;;;;;;;;;;;;18.90;70.90;95342.81;5075880;28;1033;-48
2022/08/09 03:26:32;;;;;;;;;;;;;;;19.01;71.63;95344.06;5075907;28;1048;-48
2022/08/09 03:28:58;;;;;;;;;;;;;;;18.79;72.50;95353.41;5074879;28;981;-48
2022/08/09 03:31:25;;;;;;;;;;;;;;;18.66;71.81;95349.63;5075933;28;963;-49
2022/08/09 03:33:51;;;;;;;;;;;;;;;18.78;71.81;95346.31;5075743;28;1072;-48
2022/08/09 03:36:17;;;;;;;;;;;;;;;18.63;73.32;95350.06;5075499;28;1976;-49
2022/08/09 03:38:43;;;;;;;;;;;;;;;18.59;73.28;95356.06;5075363;28;1849;-48
2022/08/09 03:41:10;;;;;;;;;;;;;;;18.84;71.14;95362.59;5075504;28;1032;-49
2022/08/09 03:43:36;;;;;;;;;;;;;;;18.71;73.17;95359.84;5081478;28;1340;-48
2022/08/09 03:46:02;;;;;;;;;;;;;;;18.76;73.04;95361.94;5095848;28;1037;-48
2022/08/09 03:48:29;;;;;;;;;;;;;;;18.78;71.97;95363.41;5095758;28;1038;-48
2022/08/09 03:50:55;;;;;;;;;;;;;;;18.96;71.21;95373.66;5095796;28;988;-48
2022/08/09 03:53:22;;;;;;;;;;;;;;;19.14;70.83;95370.31;5095325;28;1076;-49
2022/08/09 03:55:48;;;;;;;;;;;;;;;19.20;70.96;95372.19;5095537;28;1909;-48
2022/08/09 03:58:14;;;;;;;;;;;;;;;19.32;70.26;95372.38;5095217;28;973;-48
2022/08/09 04:00:41;;;;;;;;;;;;;;;19.41;70.35;95370.31;5095692;28;974;-48
2022/08/09 04:03:08;;;;;;;;;;;;;;;19.44;70.64;95372.56;5095296;28;962;-48
2022/08/09 04:05:34;;;;;;;;;;;;;;;19.48;70.39;95371.97;5095318;28;1068;-48
2022/08/09 04:08:00;;;;;;;;;;;;;;;19.46;71.57;95379.47;5095019;28;1250;-48
2022/08/09 04:10:26;;;;;;;;;;;;;;;19.48;70.62;95376.53;5095288;28;1065;-48
2022/08/09 04:12:52;;;;;;;;;;;;;;;19.59;69.90;95365.03;5094957;28;1064;-48
2022/08/09 04:15:23;;;;;;;;;;;;;;;19.58;70.62;95374.22;5095229;28;1910;-48
2022/08/09 04:17:49;;;;;;;;;;;;;;;19.50;71.70;95371.72;5095085;28;985;-48
2022/08/09 04:20:15;;;;;;;;;;;;;;;19.60;71.67;95365.88;5095091;28;988;-49
2022/08/09 04:22:42;;;;;;;;;;;;;;;19.55;72.56;95361.09;5094930;28;1043;-49
2022/08/09 04:25:09;;;;;;;;;;;;;;;19.51;72.98;95376.13;5094773;28;2009;-48
2022/08/09 04:27:39;;;;;;;;;;;;;;;19.46;73.76;95368.63;5095044;28;1004;-48
2022/08/09 04:30:16;;;;;;;;;;;;;;;19.55;72.68;95369.22;5094797;28;1044;-48
2022/08/09 04:32:42;;;;;;;;;;;;;;;19.32;74.34;95375.09;5094669;28;1045;-48
2022/08/09 04:35:09;;;;;;;;;;;;;;;19.22;72.46;95378.25;5094772;28;1979;-48
2022/08/09 04:37:36;;;;;;;;;;;;;;;19.53;70.92;95370.50;5094718;28;917;-48
2022/08/09 04:40:03;;;;;;;;;;;;;;;19.87;69.16;95374.81;5094253;28;1041;-48
2022/08/09 04:42:30;;;;;;;;;;;;;;;19.93;72.30;95376.66;5094023;28;901;-48
2022/08/09 04:44:56;;;;;;;;;;;;;;;19.95;70.63;95382.72;5076894;28;1205;-48
2022/08/09 04:47:26;;;;;;;;;;;;;;;19.91;71.69;95386.91;5056632;28;993;-48
2022/08/09 04:49:52;;;;;;;;;;;;;;;20.04;71.46;95386.84;5074021;28;1115;-48
2022/08/09 04:52:19;;;;;;;;;;;;;;;20.16;73.29;95392.44;5074090;28;989;-48
2022/08/09 04:54:47;;;;;;;;;;;;;;;20.21;71.26;95402.66;5056396;28;1909;-48
2022/08/09 04:57:13;;;;;;;;;;;;;;;20.27;71.78;95404.50;5074117;28;1046;-48
2022/08/09 04:59:39;;;;;;;;;;;;;;;20.35;72.75;95389.84;5073812;28;1072;-48
2022/08/09 05:02:05;;;;;;;;;;;;;;;20.50;69.50;95400.44;5074020;28;1041;-48
2022/08/09 05:04:31;;;;;;;;;;;;;;;20.54;71.14;95402.50;5073774;28;1009;-48
2022/08/09 05:06:57;;;;;;;;;;;;;;;20.51;71.63;95404.81;5073891;28;1008;-49
2022/08/09 05:09:23;;;;;;;;;;;;;;;20.57;70.05;95401.25;5073520;28;1080;-48
2022/08/09 05:11:49;;;;;;;;;;;;;;;20.69;68.65;95401.41;5074074;28;1032;-48
2022/08/09 05:14:15;;;;;;;;;;;;;;;20.75;69.25;95405.97;5073656;28;1992;-49
2022/08/09 05:16:41;;;;;;;;;;;;;;;20.81;67.97;95389.63;5073735;28;1099;-48
2022/08/09 05:19:07;;;;;;;;;;;;;;;20.86;67.82;95384.34;5073439;28;1042;-48
2022/08/09 05:21:33;;;;;;;;;;;;;;;20.93;67.59;95397.09;5073553;28;1354;-48
2022/08/09 05:23:59;;;;;;;;;;;;;;;20.99;68.52;95398.91;5073570;28;929;-48
2022/08/09 05:26:25;;;;;;;;;;;;;;;21.04;69.03;95394.47;5073711;28;974;-48
2022/08/09 05:28:51;;;;;;;;;;;;;;;21.17;67.25;95404.44;5073574;28;1124;-48
2022/08/09 05:31:17;;;;;;;;;;;;;;;21.56;66.78;95407.88;5073466;28;1013;-48
2022/08/09 05:33:43;;;;;;;;;;;;;;;21.91;66.31;95409.22;5073393;28;1017;-48
2022/08/09 05:36:09;;;;;;;;;;;;;;;22.26;63.99;95416.81;5073319;28;1987;-48
2022/08/09 05:38:35;;;;;;;;;;;;;;;22.73;64.38;95415.16;5073288;28;1211;-50
2022/08/09 05:41:01;;;;;;;;;;;;;;;22.98;61.52;95416.91;5073444;28;1072;-48
2022/08/09 05:43:28;;;;;;;;;;;;;;;23.19;61.79;95412.84;5078535;28;1170;-48
2022/08/09 05:45:54;;;;;;;;;;;;;;;22.89;61.23;95408.22;5093637;28;1041;-49
2022/08/09 05:48:20;;;;;;;;;;;;;;;22.61;62.66;95419.72;5093593;28;996;-48
2022/08/09 05:50:47;;;;;;;;;;;;;;;22.46;63.72;95422.00;5093357;28;1099;-49
2022/08/09 05:53:13;;;;;;;;;;;;;;;22.41;64.03;95418.09;5093061;28;1010;-49
2022/08/09 05:55:39;;;;;;;;;;;;;;;22.48;64.31;95420.75;5093172;28;1917;-48
2022/08/09 05:58:05;;;;;;;;;;;;;;;22.88;62.56;95419.34;5093538;28;1032;-48
2022/08/09 06:00:31;;;;;;;;;;;;;;;23.34;60.83;95415.94;5093650;28;1016;-49
2022/08/09 06:02:58;;;;;;;;;;;;;;;23.61;60.64;95418.22;5093500;28;1039;-48
2022/08/09 06:05:28;;;;;;;;;;;;;;;23.75;60.13;95422.41;5093187;28;1069;-48
2022/08/09 06:07:54;;;;;;;;;;;;;;;23.99;59.93;95419.69;5093120;28;1286;-48
2022/08/09 06:10:36;;;;;;;;;;;;;;;24.11;59.90;95419.66;5093301;28;1052;-48
2022/08/09 06:13:03;;;;;;;;;;;;;;;24.26;58.79;95417.25;5093381;28;1054;-48
2022/08/09 06:15:29;;;;;;;;;;;;;;;24.50;59.74;95419.94;5093102;28;1914;-48
2022/08/09 06:17:55;;;;;;;;;;;;;;;24.44;58.78;95418.19;5093277;28;1008;-48
2022/08/09 06:20:22;;;;;;;;;;;;;;;24.53;59.20;95414.03;5092863;28;1068;-48
2022/08/09 06:22:47;;;;;;;;;;;;;;;24.56;57.54;95421.75;5093191;28;1963;-48
2022/08/09 06:25:14;;;;;;;;;;;;;;;24.56;57.20;95419.00;5093128;28;1064;-48
2022/08/09 06:27:40;;;;;;;;;;;;;;;24.62;58.30;95419.94;5093319;28;977;-48
2022/08/09 06:30:07;;;;;;;;;;;;;;;24.78;56.94;95413.72;5092878;28;1091;-48
2022/08/09 06:32:33;;;;;;;;;;;;;;;25.04;56.83;95415.03;5093158;28;1030;-48
2022/08/09 06:34:59;;;;;;;;;;;;;;;25.25;56.26;95415.41;5092820;28;1905;-49
2022/08/09 06:37:25;;;;;;;;;;;;;;;25.54;55.44;95418.91;5093220;28;1016;-48
2022/08/09 06:39:51;;;;;;;;;;;;;;;25.79;53.97;95425.88;5092906;28;1069;-48
2022/08/09 06:42:18;;;;;;;;;;;;;;;26.02;53.77;95419.41;5092934;28;1029;-48
2022/08/09 06:44:45;;;;;;;;;;;;;;;26.20;53.71;95421.00;5076978;28;1169;-49
2022/08/09 06:47:11;;;;;;;;;;;;;;;26.40;55.12;95417.72;5072693;28;1108;-49
2022/08/09 06:49:37;;;;;;;;;;;;;;;26.57;52.91;95423.97;5072578;28;958;-48
2022/08/09 06:52:03;;;;;;;;;;;;;;;26.67;54.29;95418.66;5073015;28;967;-49
2022/08/09 06:54:30;;;;;;;;;;;;;;;26.76;53.28;95418.19;5072820;28;1987;-49
2022/08/09 06:56:56;;;;;;;;;;;;;;;26.90;52.72;95408.50;5072700;28;1064;-49
2022/08/09 06:59:22;;;;;;;;;;;;;;;27.04;48.31;95406.97;5072591;28;1040;-49
2022/08/09 07:01:48;;;;;;;;;;;;;;;27.15;50.04;95405.16;5072464;28;1104;-49
2022/08/09 07:04:14;;;;;;;;;;;;;;;27.38;49.28;95411.44;5073232;28;1001;-49
2022/08/09 07:06:41;;;;;;;;;;;;;;;27.56;47.50;95410.22;5076035;28;1029;-48
2022/08/09 07:09:07;;;;;;;;;;;;;;;27.56;47.66;95415.72;5076064;28;1092;-49
2022/08/09 07:11:33;;;;;;;;;;;;;;;27.51;47.30;95408.28;5076095;28;1024;-49
2022/08/09 07:13:59;;;;;;;;;;;;;;;27.64;46.21;95407.84;5076108;28;1080;-48
2022/08/09 07:16:25;;;;;;;;;;;;;;;27.78;46.99;95408.19;5075723;28;1977;-48
2022/08/09 07:18:51;;;;;;;;;;;;;;;27.96;46.33;95408.91;5075969;28;997;-48
2022/08/09 07:21:17;;;;;;;;;;;;;;;28.11;46.52;95409.00;5075994;28;1030;-49
2022/08/09 07:23:43;;;;;;;;;;;;;;;28.20;44.99;95407.41;5075915;28;1949;-48
2022/08/09 07:26:09;;;;;;;;;;;;;;;28.20;45.28;95404.66;5075791;28;938;-49
2022/08/09 07:28:36;;;;;;;;;;;;;;;28.20;45.36;95401.09;5075961;28;989;-48
2022/08/09 07:31:03;;;;;;;;;;;;;;;28.23;45.15;95397.81;5075660;28;989;-49
2022/08/09 07:33:30;;;;;;;;;;;;;;;28.29;44.33;95409.66;5075759;28;1052;-49
2022/08/09 07:35:56;;;;;;;;;;;;;;;28.27;44.28;95400.81;5075743;28;1910;-49
2022/08/09 07:38:22;;;;;;;;;;;;;;;28.34;46.20;95404.16;5075612;28;1189;-49
2022/08/09 07:40:48;;;;;;;;;;;;;;;28.32;46.12;95409.94;5075431;28;1060;-48
2022/08/09 07:43:14;;;;;;;;;;;;;;;28.35;45.77;95408.59;5078742;28;1214;-49
2022/08/09 07:45:40;;;;;;;;;;;;;;;28.48;45.00;95410.84;5095703;28;1025;-49
2022/08/09 07:48:10;;;;;;;;;;;;;;;28.44;43.98;95404.22;5095487;28;1041;-49
2022/08/09 07:50:39;;;;;;;;;;;;;;;28.36;44.48;95408.31;5095923;28;1042;-49
2022/08/09 07:53:06;;;;;;;;;;;;;;;28.41;44.81;95411.06;5095368;28;1097;-49
2022/08/09 07:55:33;;;;;;;;;;;;;;;28.54;46.01;95395.22;5095486;28;1992;-49
2022/08/09 07:57:59;;;;;;;;;;;;;;;28.74;43.63;95405.47;5095338;28;1845;-48
2022/08/09 08:00:26;;;;;;;;;;;;;;;28.81;43.45;95406.03;5095472;28;1007;-49
2022/08/09 08:02:52;;;;;;;;;;;;;;;28.85;43.35;95401.66;5095243;28;1081;-49
2022/08/09 08:05:18;;;;;;;;;;;;;;;28.89;44.69;95402.75;5095517;28;1045;-49
2022/08/09 08:07:44;;;;;;;;;;;;;;;28.95;43.16;95409.94;5095001;28;1337;-49
2022/08/09 08:10:10;;;;;;;;;;;;;;;29.02;43.27;95404.16;5095360;28;1052;-49
2022/08/09 08:12:41;;;;;;;;;;;;;;;28.97;41.83;95398.69;5095167;28;1029;-49
2022/08/09 08:15:07;;;;;;;;;;;;;;;29.03;42.95;95394.84;5094853;28;1997;-49
2022/08/09 08:17:33;;;;;;;;;;;;;;;29.26;43.45;95400.97;5094945;28;1059;-49
2022/08/09 08:19:59;;;;;;;;;;;;;;;29.29;41.06;95387.47;5095324;28;1195;-49
2022/08/09 08:22:25;;;;;;;;;;;;;;;29.39;41.76;95390.22;5094810;28;1103;-49
2022/08/09 08:24:54;;;;;;;;;;;;;;;29.50;41.51;95392.97;5095079;28;958;-49
2022/08/09 08:27:22;;;;;;;;;;;;;;;29.61;40.49;95382.78;5094737;28;981;-49
2022/08/09 08:29:48;;;;;;;;;;;;;;;29.64;40.77;95382.25;5094942;28;962;-49
2022/08/09 08:32:14;;;;;;;;;;;;;;;29.76;40.98;95385.56;5094530;28;1005;-49
2022/08/09 08:34:40;;;;;;;;;;;;;;;29.77;40.34;95382.53;5094956;28;1934;-50
2022/08/09 08:37:06;;;;;;;;;;;;;;;29.76;39.41;95374.53;5094669;28;1060;-49
2022/08/09 08:39:32;;;;;;;;;;;;;;;29.69;40.62;95379.47;5094725;28;1088;-49
2022/08/09 08:41:58;;;;;;;;;;;;;;;29.76;39.75;95382.81;5094622;28;1044;-49
2022/08/09 08:44:26;;;;;;;;;;;;;;;29.80;39.67;95380.34;5081446;28;1150;-49
2022/08/09 08:46:53;;;;;;;;;;;;;;;29.82;39.40;95372.59;5074453;28;977;-48
2022/08/09 08:49:20;;;;;;;;;;;;;;;29.64;39.12;95369.28;5074346;28;1004;-48
2022/08/09 08:51:46;;;;;;;;;;;;;;;29.72;37.74;95373.41;5074246;28;1116;-49
2022/08/09 08:54:13;;;;;;;;;;;;;;;29.82;36.36;95369.84;5073882;28;1112;-49
2022/08/09 08:56:40;;;;;;;;;;;;;;;29.90;37.60;95367.38;5074194;28;1025;-49
2022/08/09 08:59:07;;;;;;;;;;;;;;;29.94;38.55;95362.13;5073750;28;1079;-49
2022/08/09 09:01:37;;;;;;;;;;;;;;;30.06;37.00;95362.63;5074036;28;1128;-49
2022/08/09 09:04:03;;;;;;;;;;;;;;;30.09;37.04;95362.09;5073690;28;1045;-49
2022/08/09 09:06:30;;;;;;;;;;;;;;;30.34;37.11;95365.91;5074112;28;1033;-48
2022/08/09 09:08:57;;;;;;;;;;;;;;;30.48;37.72;95352.34;5073725;28;1247;-49
2022/08/09 09:11:24;;;;;;;;;;;;;;;30.67;36.76;95355.28;5073759;28;1097;-49
2022/08/09 09:13:51;;;;;;;;;;;;;;;30.80;37.44;95351.06;5073572;28;1033;-49
2022/08/09 09:16:17;;;;;;;;;;;;;;;30.79;37.61;95358.53;5073575;28;2000;-49
2022/08/09 09:18:43;;;;;;;;;;;;;;;30.78;36.75;95350.53;5073750;28;1032;-49
2022/08/09 09:21:09;;;;;;;;;;;;;;;30.65;35.86;95349.22;5073731;28;1045;-49
2022/08/09 09:23:40;;;;;;;;;;;;;;;30.55;37.04;95339.88;5073690;28;946;-49
2022/08/09 09:26:06;;;;;;;;;;;;;;;30.66;37.31;95342.59;5073625;28;953;-49
2022/08/09 09:28:33;;;;;;;;;;;;;;;30.73;37.59;95334.81;5072880;28;1841;-49
2022/08/09 09:31:00;;;;;;;;;;;;;;;30.77;36.73;95333.13;5073553;28;1072;-49
2022/08/09 09:33:31;;;;;;;;;;;;;;;30.80;36.54;95327.06;5073253;28;1087;-49
2022/08/09 09:35:58;;;;;;;;;;;;;;;30.84;36.33;95328.13;5073576;28;1910;-49
2022/08/09 09:38:43;;;;;;;;;;;;;;;30.92;36.20;95318.44;5073350;28;1017;-49
2022/08/09 09:41:09;;;;;;;;;;;;;;;31.05;37.34;95312.28;5073328;28;968;-49
2022/08/09 09:43:36;;;;;;;;;;;;;;;30.98;36.41;95317.31;5079331;28;1217;-49
2022/08/09 09:46:02;;;;;;;;;;;;;;;30.98;33.32;95322.00;5093608;28;1877;-49
2022/08/09 09:48:28;;;;;;;;;;;;;;;30.99;31.13;95318.16;5093580;28;965;-49
2022/08/09 09:50:55;;;;;;;;;;;;;;;30.98;31.84;95316.47;5093651;28;1036;-49
2022/08/09 09:53:24;;;;;;;;;;;;;;;31.03;31.91;95313.69;5093302;28;1032;-49
2022/08/09 09:55:54;;;;;;;;;;;;;;;31.04;31.41;95294.09;5075518;28;1993;-49
2022/08/09 09:58:20;;;;;;;;;;;;;;;31.02;32.57;95296.31;5093412;28;1032;-50
2022/08/09 10:00:46;;;;;;;;;;;;;;;31.05;31.02;95305.94;5093634;28;983;-49
2022/08/09 10:03:12;;;;;;;;;;;;;;;30.92;29.21;95319.31;5075360;28;1032;-49
2022/08/09 10:05:57;;;;;;;;;;;;;;;30.83;28.48;95322.88;5093457;28;1032;-49
2022/08/09 10:08:23;;;;;;;;;;;;;;;30.82;28.19;95311.03;5092904;28;1610;-49
2022/08/09 10:10:50;;;;;;;;;;;;;;;30.93;28.97;95304.38;5093583;28;973;-49
2022/08/09 10:13:17;;;;;;;;;;;;;;;31.12;29.94;95296.22;5093223;28;1036;-49
2022/08/09 10:15:50;;;;;;;;;;;;;;;31.24;28.85;95289.50;5093325;28;1909;-49
2022/08/09 10:18:17;;;;;;;;;;;;;;;31.30;28.85;95291.94;5093154;28;1045;-49
2022/08/09 10:20:43;;;;;;;;;;;;;;;31.42;28.78;95288.00;5093081;28;1163;-49
2022/08/09 10:23:27;;;;;;;;;;;;;;;31.10;30.84;95286.59;5093426;28;1012;-50
2022/08/09 10:25:54;;;;;;;;;;;;;;;31.06;31.52;95280.81;5093426;28;1074;-49
2022/08/09 10:28:20;;;;;;;;;;;;;;;31.10;29.41;95273.59;5093082;28;1064;-49
2022/08/09 10:30:46;;;;;;;;;;;;;;;31.13;31.10;95286.84;5093032;28;1076;-49
2022/08/09 10:33:12;;;;;;;;;;;;;;;31.14;30.58;95282.13;5093001;28;1888;-50
2022/08/09 10:35:40;;;;;;;;;;;;;;;31.17;31.21;95284.31;5093088;28;1914;-49
2022/08/09 10:38:07;;;;;;;;;;;;;;;31.20;30.93;95278.22;5093202;28;1056;-49
2022/08/09 10:40:34;;;;;;;;;;;;;;;31.19;29.99;95278.50;5095821;28;1092;-49
2022/08/09 10:43:00;;;;;;;;;;;;;;;31.21;30.97;95287.31;5095755;28;1110;-49
2022/08/09 10:45:28;;;;;;;;;;;;;;;31.22;28.35;95283.44;5076424;28;1045;-48
2022/08/09 10:48:00;;;;;;;;;;;;;;;31.28;30.02;95283.13;5076626;28;1056;-49
2022/08/09 10:51:05;;;;;;;;;;;;;;;31.36;28.81;95283.59;5076570;28;973;-49
2022/08/09 10:53:34;;;;;;;;;;;;;;;31.39;28.21;95275.56;5076380;28;1605;-50
2022/08/09 10:56:15;;;;;;;;;;;;;;;31.50;28.08;95285.44;5059155;28;1910;-49
2022/08/09 10:58:42;;;;;;;;;;;;;;;31.57;28.69;95285.13;5076352;28;1951;-49
2022/08/09 11:01:26;;;;;;;;;;;;;;;31.44;27.74;95283.00;5076069;28;1092;-49
2022/08/09 11:04:11;;;;;;;;;;;;;;;31.44;27.73;95278.28;5076268;28;1087;-49
2022/08/09 11:06:38;;;;;;;;;;;;;;;31.44;27.71;95278.28;5076197;28;966;-49
2022/08/09 11:09:05;;;;;;;;;;;;;;;31.46;25.64;95278.00;5076048;28;1104;-49
2022/08/09 11:11:49;;;;;;;;;;;;;;;31.51;27.68;95273.28;5075990;28;1064;-49
2022/08/09 11:14:34;;;;;;;;;;;;;;;31.45;26.24;95270.81;5076006;28;1072;-49
2022/08/09 11:17:01;;;;;;;;;;;;;;;31.43;28.05;95262.81;5076050;28;1065;-49
2022/08/09 11:19:45;;;;;;;;;;;;;;;31.56;28.07;95258.56;5075982;28;965;-49
2022/08/09 11:22:11;;;;;;;;;;;;;;;31.44;27.91;95258.94;5076094;28;1039;-49
2022/08/09 11:24:55;;;;;;;;;;;;;;;31.03;27.53;95262.06;5075944;28;1053;-50
2022/08/09 11:27:31;;;;;;;;;;;;;;;30.55;28.08;95253.53;5075933;28;1027;-49
2022/08/09 11:29:57;;;;;;;;;;;;;;;30.50;28.58;95251.63;5075639;28;1836;-49
2022/08/09 11:32:39;;;;;;;;;;;;;;;30.72;28.30;95245.69;5075911;28;950;-49
2022/08/09 11:35:07;;;;;;;;;;;;;;;31.02;28.04;95234.72;5075413;28;1906;-49
2022/08/09 11:37:34;;;;;;;;;;;;;;;31.13;27.30;95237.13;5058017;28;1067;-49
2022/08/09 11:40:05;;;;;;;;;;;;;;;31.27;26.12;95234.53;5075437;28;1137;-49
2022/08/09 11:42:51;;;;;;;;;;;;;;;31.48;28.21;95228.84;5075906;28;986;-50
2022/08/09 11:45:20;;;;;;;;;;;;;;;31.51;26.88;95231.84;5095390;28;1930;-49
2022/08/09 11:47:47;;;;;;;;;;;;;;;31.61;28.56;95219.03;5095865;28;974;-49
2022/08/09 11:50:14;;;;;;;;;;;;;;;31.68;27.56;95225.84;5094957;28;921;-50
2022/08/09 11:52:58;;;;;;;;;;;;;;;31.38;26.15;95224.22;5095602;28;1062;-50
2022/08/09 11:55:40;;;;;;;;;;;;;;;31.23;26.96;95227.94;5095280;28;1985;-49
2022/08/09 11:58:12;;;;;;;;;;;;;;;31.20;26.47;95222.97;5095564;28;982;-49
2022/08/09 12:00:46;;;;;;;;;;;;;;;31.10;28.90;95217.56;5095366;28;1061;-50
2022/08/09 12:03:16;;;;;;;;;;;;;;;30.94;28.46;95220.47;5095343;28;1033;-49
2022/08/09 12:05:43;;;;;;;;;;;;;;;30.91;28.24;95212.75;5095454;28;1051;-50
2022/08/09 12:08:10;;;;;;;;;;;;;;;31.01;28.11;95211.81;5095258;28;1215;-50
2022/08/09 12:10:41;;;;;;;;;;;;;;;31.21;28.82;95210.84;5095312;28;968;-50
2022/08/09 12:13:07;;;;;;;;;;;;;;;31.43;28.33;95206.75;5095256;28;1057;-50
2022/08/09 12:15:33;;;;;;;;;;;;;;;31.63;27.62;95201.03;5094908;28;1910;-50
2022/08/09 12:17:59;;;;;;;;;;;;;;;31.57;27.53;95198.59;5095111;28;1119;-50
2022/08/09 12:20:26;;;;;;;;;;;;;;;31.55;26.67;95193.41;5095175;28;1012;-50
2022/08/09 12:22:57;;;;;;;;;;;;;;;31.15;28.78;95195.41;5094959;28;1168;-49
2022/08/09 12:25:25;;;;;;;;;;;;;;;30.78;27.77;95194.06;5094916;28;1036;-49
2022/08/09 12:28:10;;;;;;;;;;;;;;;30.49;28.37;95200.34;5094907;28;981;-49
2022/08/09 12:30:36;;;;;;;;;;;;;;;30.31;28.57;95188.00;5094912;28;1108;-49
2022/08/09 12:33:03;;;;;;;;;;;;;;;30.19;28.62;95187.53;5094892;28;1040;-49
2022/08/09 12:35:29;;;;;;;;;;;;;;;30.04;28.70;95193.13;5094729;28;1906;-49
2022/08/09 12:37:55;;;;;;;;;;;;;;;29.94;29.33;95178.28;5094720;28;1036;-49
2022/08/09 12:40:23;;;;;;;;;;;;;;;29.94;29.56;95177.47;5094655;28;1080;-49
2022/08/09 12:42:49;;;;;;;;;;;;;;;29.81;29.81;95184.41;5094505;28;1033;-49
2022/08/09 12:45:15;;;;;;;;;;;;;;;29.77;28.88;95177.81;5074674;28;1186;-49
2022/08/09 12:47:41;;;;;;;;;;;;;;;30.08;29.26;95164.69;5074341;28;1057;-49
2022/08/09 12:50:17;;;;;;;;;;;;;;;30.43;28.71;95167.53;5074421;28;1022;-49
2022/08/09 12:52:45;;;;;;;;;;;;;;;30.67;28.62;95162.13;5074300;28;1128;-49
2022/08/09 12:55:22;;;;;;;;;;;;;;;30.78;28.10;95165.63;5074069;28;1910;-49
2022/08/09 12:57:48;;;;;;;;;;;;;;;30.83;28.20;95165.56;5074183;28;1046;-49
2022/08/09 13:00:16;;;;;;;;;;;;;;;30.91;28.65;95165.81;5073969;28;1053;-49
2022/08/09 13:02:57;;;;;;;;;;;;;;;31.00;28.93;95148.63;5073131;28;1109;-49